Time;durP1;ratioP1;P1;durP2;ratioP2;P2;SDS_P1;SDS_P2;PMS_P1;PMS_P2;Temp;Humidity;BMP_temperature;BMP_pressure;BME280_temperature;BME280_humidity;BME280_pressure;Samples;Min_cycle;Max_cycle;Signal;HPM_P1;HPM_P2
2021/07/02 00:01:18;;;;;;;40.20;23.80;;;13.40;99.90;;;;;;5052212;28;20216;-74
2021/07/02 00:03:43;;;;;;;40.57;21.90;;;13.50;99.90;;;;;;5048825;28;20269;-74
2021/07/02 00:06:09;;;;;;;45.57;24.30;;;13.40;99.90;;;;;;5054176;28;20222;-75
2021/07/02 00:08:35;;;;;;;46.90;24.40;;;13.40;99.90;;;;;;5049946;28;20213;-75
2021/07/02 00:11:01;;;;;;;39.87;24.53;;;13.40;99.90;;;;;;5054252;28;20209;-74
2021/07/02 00:13:28;;;;;;;38.33;22.53;;;13.40;99.90;;;;;;5054867;28;20212;-74
2021/07/02 00:15:54;;;;;;;37.10;22.30;;;13.40;99.90;;;;;;5047422;28;20459;-75
2021/07/02 00:18:20;;;;;;;38.23;23.47;;;13.50;99.90;;;;;;5044275;28;20285;-74
2021/07/02 00:20:45;;;;;;;40.97;22.17;;;13.50;99.90;;;;;;5053672;28;20449;-75
2021/07/02 00:23:11;;;;;;;33.30;21.43;;;13.50;99.90;;;;;;5053703;28;20300;-75
2021/07/02 00:25:37;;;;;;;36.60;22.80;;;13.60;99.90;;;;;;5049530;28;20560;-74
2021/07/02 00:28:07;;;;;;;37.57;22.23;;;13.60;99.90;;;;;;5053536;28;20213;-74
2021/07/02 00:30:34;;;;;;;41.43;23.97;;;13.60;99.90;;;;;;5049887;28;20552;-74
2021/07/02 00:33:00;;;;;;;40.43;21.80;;;13.60;99.90;;;;;;5046608;28;20452;-74
2021/07/02 00:35:26;;;;;;;42.60;24.67;;;13.60;99.90;;;;;;5048543;28;20528;-74
2021/07/02 00:37:51;;;;;;;43.60;25.23;;;13.60;99.90;;;;;;5046420;28;21571;-75
2021/07/02 00:40:17;;;;;;;36.57;23.83;;;13.60;99.90;;;;;;5054181;28;20283;-74
2021/07/02 00:42:44;;;;;;;44.83;25.33;;;13.60;99.90;;;;;;5050177;28;20719;-74
2021/07/02 00:45:10;;;;;;;41.73;22.87;;;13.60;99.90;;;;;;5050224;28;20182;-74
2021/07/02 00:47:36;;;;;;;42.77;24.10;;;13.60;99.90;;;;;;5043358;28;20456;-75
2021/07/02 00:50:04;;;;;;;37.93;24.37;;;13.60;99.90;;;;;;5055376;28;20438;-74
2021/07/02 00:52:30;;;;;;;46.77;23.43;;;13.50;99.90;;;;;;5052132;28;20615;-75
2021/07/02 00:54:56;;;;;;;45.53;25.77;;;13.50;99.90;;;;;;5040370;28;20469;-74
2021/07/02 00:57:25;;;;;;;44.47;24.10;;;13.60;99.90;;;;;;5055307;28;20461;-75
2021/07/02 00:59:51;;;;;;;36.47;22.43;;;13.50;99.90;;;;;;5061801;28;20484;-75
2021/07/02 01:02:19;;;;;;;41.00;25.00;;;13.50;99.90;;;;;;5048071;28;20568;-74
2021/07/02 01:04:44;;;;;;;40.67;25.10;;;13.50;99.90;;;;;;5050056;28;20511;-74
2021/07/02 01:07:12;;;;;;;39.73;23.00;;;13.50;99.90;;;;;;5045786;28;20456;-74
2021/07/02 01:09:41;;;;;;;41.00;22.63;;;13.50;99.90;;;;;;5049588;28;20559;-75
2021/07/02 01:12:11;;;;;;;38.57;22.93;;;13.40;99.90;;;;;;5046670;28;20445;-74
2021/07/02 01:14:37;;;;;;;38.43;23.53;;;13.40;99.90;;;;;;5048925;28;20444;-74
2021/07/02 01:17:03;;;;;;;47.23;24.90;;;13.40;99.90;;;;;;5051508;28;20509;-75
2021/07/02 01:19:31;;;;;;;42.10;24.70;;;13.40;99.90;;;;;;5046129;28;20437;-74
2021/07/02 01:21:57;;;;;;;42.40;25.70;;;13.40;99.90;;;;;;5047430;28;20448;-74
2021/07/02 01:24:27;;;;;;;42.20;24.10;;;13.40;99.90;;;;;;5046446;28;20493;-74
2021/07/02 01:26:53;;;;;;;39.93;24.60;;;13.40;99.90;;;;;;5046258;28;20464;-74
2021/07/02 01:29:20;;;;;;;45.53;25.87;;;13.40;99.90;;;;;;5038550;28;20547;-74
2021/07/02 01:31:46;;;;;;;45.83;24.00;;;13.40;99.90;;;;;;5029555;28;20448;-75
2021/07/02 01:34:12;;;;;;;38.00;23.90;;;13.40;99.90;;;;;;5048418;28;20947;-75
2021/07/02 01:36:38;;;;;;;46.17;24.23;;;13.40;99.90;;;;;;5045399;28;20441;-75
2021/07/02 01:39:08;;;;;;;46.00;25.20;;;13.40;99.90;;;;;;5047541;28;20449;-74
2021/07/02 01:41:34;;;;;;;48.97;24.97;;;13.40;99.90;;;;;;5045733;28;20547;-74
2021/07/02 01:44:01;;;;;;;39.97;23.63;;;13.40;99.90;;;;;;5051790;28;20468;-74
2021/07/02 01:46:27;;;;;;;39.77;22.13;;;13.40;99.90;;;;;;5044772;28;20438;-74
2021/07/02 01:48:53;;;;;;;46.90;25.07;;;13.40;99.90;;;;;;5046838;28;20190;-74
2021/07/02 01:51:22;;;;;;;36.23;23.53;;;13.40;99.90;;;;;;5059898;28;20439;-73
2021/07/02 01:53:48;;;;;;;44.50;25.77;;;13.40;99.90;;;;;;5052277;28;20445;-74
2021/07/02 01:56:14;;;;;;;43.43;25.50;;;13.40;99.90;;;;;;5046841;28;20199;-73
2021/07/02 01:58:43;;;;;;;45.53;24.13;;;13.40;99.90;;;;;;5045537;28;20445;-74
2021/07/02 02:01:16;;;;;;;49.40;25.27;;;13.50;99.90;;;;;;5046657;28;21011;-73
2021/07/02 02:03:42;;;;;;;44.10;24.60;;;13.40;99.90;;;;;;5046785;28;20498;-73
2021/07/02 02:06:08;;;;;;;45.90;24.57;;;13.50;99.90;;;;;;5048282;28;20183;-73
2021/07/02 02:08:34;;;;;;;38.43;23.30;;;13.40;99.90;;;;;;5051419;28;20946;-73
2021/07/02 02:11:02;;;;;;;39.17;24.63;;;13.50;99.90;;;;;;5052972;28;20464;-73
2021/07/02 02:13:34;;;;;;;46.20;25.27;;;13.50;99.90;;;;;;5049689;28;20908;-74
2021/07/02 02:16:07;;;;;;;48.53;25.43;;;13.50;99.90;;;;;;5044578;28;20464;-73
2021/07/02 02:18:34;;;;;;;43.30;24.40;;;13.50;99.90;;;;;;5054177;28;20499;-74
2021/07/02 02:21:00;;;;;;;48.57;25.80;;;13.50;99.90;;;;;;5049948;28;20848;-73
2021/07/02 02:23:26;;;;;;;43.33;24.47;;;13.50;99.90;;;;;;5053375;28;20276;-73
2021/07/02 02:25:52;;;;;;;41.20;23.80;;;13.50;99.90;;;;;;5046274;28;20460;-73
2021/07/02 02:28:21;;;;;;;45.87;25.87;;;13.40;99.90;;;;;;5051069;28;20527;-73
2021/07/02 02:30:47;;;;;;;35.70;21.83;;;13.50;99.90;;;;;;5049355;28;20458;-73
2021/07/02 02:33:14;;;;;;;42.63;24.50;;;13.50;99.90;;;;;;5050493;28;20449;-73
2021/07/02 02:35:41;;;;;;;59.13;25.10;;;13.50;99.90;;;;;;5049292;28;20452;-73
2021/07/02 02:38:07;;;;;;;39.80;23.77;;;13.50;99.90;;;;;;5051037;28;20441;-73
2021/07/02 02:40:33;;;;;;;41.83;24.57;;;13.50;99.90;;;;;;5047752;28;20225;-73
2021/07/02 02:43:00;;;;;;;45.30;22.77;;;13.50;99.90;;;;;;5054838;28;20991;-73
2021/07/02 02:45:26;;;;;;;44.63;24.97;;;13.50;99.90;;;;;;5054184;28;20437;-73
2021/07/02 02:47:56;;;;;;;43.47;23.77;;;13.50;99.90;;;;;;5047863;28;20442;-73
2021/07/02 02:50:22;;;;;;;43.97;23.50;;;13.50;99.90;;;;;;5053374;28;20462;-73
2021/07/02 02:52:48;;;;;;;40.97;23.73;;;13.40;99.90;;;;;;5047015;28;20348;-73
2021/07/02 02:55:14;;;;;;;39.37;22.20;;;13.50;99.90;;;;;;5050805;28;20461;-74
2021/07/02 02:57:40;;;;;;;41.57;22.13;;;13.40;99.90;;;;;;5050039;28;20529;-73
2021/07/02 03:00:09;;;;;;;43.07;24.80;;;13.40;99.90;;;;;;5049605;28;20501;-73
2021/07/02 03:02:35;;;;;;;42.00;24.67;;;13.40;99.90;;;;;;5041969;28;21176;-73
2021/07/02 03:05:01;;;;;;;50.50;23.43;;;13.50;99.90;;;;;;5049398;28;20465;-74
2021/07/02 03:07:28;;;;;;;44.37;23.73;;;13.40;99.90;;;;;;5052212;28;20961;-73
2021/07/02 03:09:56;;;;;;;44.63;24.10;;;13.40;99.90;;;;;;5031991;28;21867;-73
2021/07/02 03:12:22;;;;;;;45.33;24.30;;;13.40;99.90;;;;;;5046072;28;20450;-73
2021/07/02 03:14:52;;;;;;;47.00;24.37;;;13.40;99.90;;;;;;5049200;28;20185;-74
2021/07/02 03:17:19;;;;;;;43.37;23.93;;;13.40;99.90;;;;;;5046656;28;20473;-75
2021/07/02 03:19:45;;;;;;;46.83;25.27;;;13.40;99.90;;;;;;5049561;28;20753;-73
2021/07/02 03:22:12;;;;;;;49.97;24.63;;;13.40;99.90;;;;;;5053983;28;20602;-73
2021/07/02 03:24:39;;;;;;;43.60;22.80;;;13.40;99.90;;;;;;5057282;28;21026;-72
2021/07/02 03:27:06;;;;;;;47.00;25.77;;;13.30;99.90;;;;;;5059142;28;20522;-72
2021/07/02 03:29:31;;;;;;;40.57;22.87;;;13.40;99.90;;;;;;5051211;28;23088;-73
2021/07/02 03:31:58;;;;;;;39.80;24.20;;;13.40;99.90;;;;;;5051884;28;20652;-72
2021/07/02 03:34:25;;;;;;;46.70;24.90;;;13.40;99.90;;;;;;5057815;28;20441;-73
2021/07/02 03:36:53;;;;;;;39.90;23.57;;;13.30;99.90;;;;;;5049484;28;20445;-73
2021/07/02 03:39:19;;;;;;;38.90;23.70;;;13.40;99.90;;;;;;5051378;28;20445;-72
2021/07/02 03:41:45;;;;;;;40.20;22.00;;;13.30;99.90;;;;;;5053602;28;20645;-73
2021/07/02 03:44:12;;;;;;;42.67;24.40;;;13.40;99.90;;;;;;5046777;28;20468;-73
2021/07/02 03:46:38;;;;;;;44.67;21.57;;;13.30;99.90;;;;;;5055487;28;20503;-73
2021/07/02 03:49:04;;;;;;;44.50;24.57;;;13.40;99.90;;;;;;5049374;28;20608;-73
2021/07/02 03:51:30;;;;;;;37.93;21.37;;;13.40;99.90;;;;;;5064148;28;20175;-73
2021/07/02 03:53:55;;;;;;;39.20;22.80;;;13.40;99.90;;;;;;5056876;28;20198;-73
2021/07/02 03:56:21;;;;;;;39.30;21.70;;;13.40;99.90;;;;;;5043101;28;20286;-73
2021/07/02 03:58:47;;;;;;;44.03;24.57;;;13.40;99.90;;;;;;5047967;28;20194;-73
2021/07/02 04:01:12;;;;;;;36.50;20.43;;;13.40;99.90;;;;;;5051386;28;20668;-73
2021/07/02 04:03:38;;;;;;;33.20;21.27;;;13.40;99.90;;;;;;5054709;28;20269;-73
2021/07/02 04:06:04;;;;;;;33.50;21.17;;;13.40;99.90;;;;;;5059112;28;20184;-73
2021/07/02 04:08:29;;;;;;;34.07;20.97;;;13.40;99.90;;;;;;5050438;28;20548;-73
2021/07/02 04:10:55;;;;;;;43.43;20.83;;;13.40;99.90;;;;;;5049452;28;20204;-72
2021/07/02 04:13:22;;;;;;;37.80;20.80;;;13.50;99.90;;;;;;5053823;28;20187;-73
2021/07/02 04:15:49;;;;;;;32.97;20.67;;;13.40;99.90;;;;;;5053134;28;20211;-73
2021/07/02 04:18:15;;;;;;;32.47;20.47;;;13.50;99.90;;;;;;5048759;28;20452;-73
2021/07/02 04:20:40;;;;;;;36.03;20.00;;;13.50;99.90;;;;;;5051796;28;20896;-73
2021/07/02 04:23:07;;;;;;;45.40;22.83;;;13.50;99.90;;;;;;5053215;28;20570;-73
2021/07/02 04:25:33;;;;;;;36.93;20.63;;;13.50;99.90;;;;;;5041907;28;20607;-73
2021/07/02 04:27:59;;;;;;;42.47;20.83;;;13.50;99.90;;;;;;5048392;28;20462;-73
2021/07/02 04:30:24;;;;;;;39.63;21.50;;;13.60;99.90;;;;;;5049279;28;20224;-72
2021/07/02 04:32:50;;;;;;;41.30;23.30;;;13.70;99.90;;;;;;5057810;28;20453;-73
2021/07/02 04:35:16;;;;;;;51.63;26.00;;;13.60;99.90;;;;;;5059822;28;20297;-73
2021/07/02 04:37:42;;;;;;;38.73;22.90;;;13.60;99.90;;;;;;5051854;28;21026;-73
2021/07/02 04:40:10;;;;;;;47.63;23.90;;;13.60;99.90;;;;;;5052731;28;20197;-73
2021/07/02 04:42:36;;;;;;;33.70;21.53;;;13.60;99.90;;;;;;5057088;28;20564;-73
2021/07/02 04:45:02;;;;;;;39.33;20.33;;;13.60;99.90;;;;;;5055632;28;20443;-72
2021/07/02 04:47:28;;;;;;;48.67;22.40;;;13.60;99.90;;;;;;5053126;28;20437;-73
2021/07/02 04:49:54;;;;;;;38.17;20.97;;;13.70;99.90;;;;;;5055584;28;20499;-73
2021/07/02 04:52:19;;;;;;;35.50;20.70;;;13.70;99.90;;;;;;5053391;28;20657;-73
2021/07/02 04:54:47;;;;;;;47.87;20.73;;;13.60;99.90;;;;;;5043147;28;20195;-73
2021/07/02 04:57:13;;;;;;;38.90;22.80;;;13.70;99.90;;;;;;5047086;28;20195;-73
2021/07/02 04:59:39;;;;;;;36.63;21.37;;;13.70;99.90;;;;;;5051957;28;20472;-73
2021/07/02 05:02:06;;;;;;;32.13;19.37;;;13.70;99.90;;;;;;5056247;28;20442;-72
2021/07/02 05:04:33;;;;;;;39.20;22.43;;;13.70;99.90;;;;;;5031559;28;20461;-72
2021/07/02 05:06:59;;;;;;;35.33;19.63;;;13.60;99.90;;;;;;5048922;28;21288;-72
2021/07/02 05:09:25;;;;;;;41.53;21.07;;;13.60;99.90;;;;;;5053697;28;20497;-73
2021/07/02 05:11:51;;;;;;;34.43;18.37;;;13.60;99.90;;;;;;5046538;28;20465;-73
2021/07/02 05:14:17;;;;;;;33.80;19.70;;;13.60;99.90;;;;;;5054026;28;20448;-72
2021/07/02 05:16:42;;;;;;;36.57;19.63;;;13.60;99.90;;;;;;5051764;28;20921;-73
2021/07/02 05:19:08;;;;;;;35.47;19.87;;;13.70;99.90;;;;;;5051980;28;20460;-73
2021/07/02 05:21:35;;;;;;;34.80;19.10;;;13.60;99.90;;;;;;5048208;28;20288;-72
2021/07/02 05:24:00;;;;;;;33.53;18.87;;;13.70;99.90;;;;;;5048038;28;20472;-73
2021/07/02 05:26:26;;;;;;;42.43;19.30;;;13.70;99.90;;;;;;5051636;28;20948;-72
2021/07/02 05:28:52;;;;;;;33.73;18.23;;;13.70;99.90;;;;;;5061249;28;20970;-73
2021/07/02 05:31:18;;;;;;;34.90;18.97;;;13.70;99.90;;;;;;5052837;28;20185;-73
2021/07/02 05:33:44;;;;;;;39.87;20.43;;;13.60;99.90;;;;;;5056955;28;20216;-73
2021/07/02 05:36:10;;;;;;;34.10;21.00;;;13.70;99.90;;;;;;5048365;28;20203;-72
2021/07/02 05:38:36;;;;;;;38.70;21.10;;;13.70;99.90;;;;;;5050205;28;20484;-72
2021/07/02 05:41:02;;;;;;;38.73;19.67;;;13.80;99.90;;;;;;5058549;28;20326;-73
2021/07/02 05:43:27;;;;;;;36.50;20.20;;;13.90;99.90;;;;;;5050303;28;20473;-72
2021/07/02 05:45:53;;;;;;;38.53;21.40;;;13.90;99.90;;;;;;5053199;28;20179;-73
2021/07/02 05:48:20;;;;;;;32.87;19.13;;;13.90;99.90;;;;;;5056109;28;20181;-73
2021/07/02 05:50:47;;;;;;;36.97;19.40;;;13.90;99.90;;;;;;5052317;28;20447;-73
2021/07/02 05:53:14;;;;;;;34.67;19.70;;;13.90;99.90;;;;;;5048328;28;20449;-72
2021/07/02 05:55:39;;;;;;;38.67;23.37;;;14.00;99.90;;;;;;5050816;28;20465;-72
2021/07/02 05:58:05;;;;;;;37.60;20.43;;;14.00;99.90;;;;;;5058226;28;20432;-73
2021/07/02 06:00:31;;;;;;;41.03;20.10;;;14.10;99.90;;;;;;5042222;28;20686;-72
2021/07/02 06:02:57;;;;;;;36.90;21.20;;;14.10;99.90;;;;;;5052660;28;20210;-73
2021/07/02 06:05:23;;;;;;;32.27;19.40;;;14.10;99.90;;;;;;5045912;28;20486;-73
2021/07/02 06:07:53;;;;;;;35.47;20.10;;;14.10;99.90;;;;;;5052773;28;20235;-73
2021/07/02 06:10:21;;;;;;;31.20;19.17;;;14.20;99.90;;;;;;5047977;28;20496;-73
2021/07/02 06:12:48;;;;;;;38.50;20.07;;;14.20;99.90;;;;;;5048399;28;20538;-72
2021/07/02 06:15:15;;;;;;;33.63;20.77;;;14.30;99.90;;;;;;5052504;28;20460;-72
2021/07/02 06:17:42;;;;;;;39.83;19.63;;;14.30;99.90;;;;;;5048867;28;21739;-73
2021/07/02 06:20:09;;;;;;;32.03;17.47;;;14.20;99.90;;;;;;5049764;28;20445;-73
2021/07/02 06:22:36;;;;;;;27.17;18.10;;;14.20;99.90;;;;;;5048551;28;20481;-72
2021/07/02 06:25:03;;;;;;;33.47;19.33;;;14.20;99.90;;;;;;5046302;28;20444;-73
2021/07/02 06:27:29;;;;;;;27.03;16.23;;;14.20;99.90;;;;;;5052424;28;20464;-72
2021/07/02 06:29:55;;;;;;;37.67;19.00;;;14.20;99.90;;;;;;5052538;28;20991;-73
2021/07/02 06:32:20;;;;;;;34.23;18.17;;;14.20;99.90;;;;;;5046400;28;20187;-73
2021/07/02 06:34:46;;;;;;;31.07;18.00;;;14.20;99.90;;;;;;5052385;28;20193;-73
2021/07/02 06:37:12;;;;;;;33.60;17.63;;;14.10;99.90;;;;;;5047205;28;20277;-73
2021/07/02 06:39:37;;;;;;;26.53;16.77;;;14.30;99.90;;;;;;5051084;28;20201;-73
2021/07/02 06:42:04;;;;;;;32.73;17.80;;;14.20;99.90;;;;;;5048167;28;20195;-73
2021/07/02 06:44:29;;;;;;;30.83;17.50;;;14.20;99.90;;;;;;5042901;28;20225;-73
2021/07/02 06:46:55;;;;;;;33.07;17.40;;;14.30;99.90;;;;;;5048891;28;20446;-73
2021/07/02 06:49:21;;;;;;;31.43;18.17;;;14.30;99.90;;;;;;5048786;28;20242;-73
2021/07/02 06:51:47;;;;;;;33.10;18.17;;;14.40;99.90;;;;;;5045087;28;20277;-72
2021/07/02 06:54:13;;;;;;;28.37;17.30;;;14.40;99.90;;;;;;5046474;28;20184;-73
2021/07/02 06:57:00;;;;;;;27.10;15.70;;;14.40;99.90;;;;;;5046628;28;20455;-73
2021/07/02 06:59:25;;;;;;;28.50;14.70;;;14.60;99.90;;;;;;5054452;28;20803;-73
2021/07/02 07:01:50;;;;;;;24.73;14.10;;;14.60;99.90;;;;;;5046577;28;20450;-73
2021/07/02 07:04:16;;;;;;;25.80;14.57;;;14.90;99.90;;;;;;5050073;28;20281;-73
2021/07/02 07:06:41;;;;;;;25.73;13.93;;;14.90;99.90;;;;;;5050859;28;20187;-75
2021/07/02 07:09:07;;;;;;;33.73;14.10;;;15.00;99.90;;;;;;5051964;28;20183;-75
2021/07/02 07:11:33;;;;;;;20.93;13.40;;;15.00;99.90;;;;;;5052255;28;20212;-75
2021/07/02 07:13:58;;;;;;;21.53;13.30;;;15.10;99.90;;;;;;5056194;28;20237;-73
2021/07/02 07:16:24;;;;;;;28.10;12.80;;;15.20;99.90;;;;;;5052297;28;20183;-73
2021/07/02 07:18:49;;;;;;;22.00;11.70;;;15.30;99.90;;;;;;5045671;28;20183;-72
2021/07/02 07:21:15;;;;;;;22.43;13.57;;;15.40;99.90;;;;;;5049265;28;20182;-73
2021/07/02 07:23:41;;;;;;;23.20;13.00;;;15.30;99.90;;;;;;5051110;28;20591;-72
2021/07/02 07:26:06;;;;;;;19.53;10.47;;;15.40;99.90;;;;;;5050497;28;20208;-73
2021/07/02 07:28:32;;;;;;;27.93;11.33;;;15.50;99.90;;;;;;5057826;28;20191;-73
2021/07/02 07:30:57;;;;;;;14.10;10.27;;;15.60;99.90;;;;;;5047849;28;20238;-74
2021/07/02 07:33:23;;;;;;;14.20;9.40;;;15.70;99.90;;;;;;5050605;28;20188;-73
2021/07/02 07:35:50;;;;;;;13.17;8.77;;;15.70;99.90;;;;;;5044855;28;20840;-73
2021/07/02 07:38:17;;;;;;;12.97;8.03;;;15.70;99.90;;;;;;5049936;28;20795;-74
2021/07/02 07:40:43;;;;;;;14.10;7.97;;;15.80;99.90;;;;;;5046703;28;20834;-73
2021/07/02 07:43:09;;;;;;;16.70;8.43;;;15.80;99.90;;;;;;5044293;28;20463;-72
2021/07/02 07:45:34;;;;;;;11.37;7.70;;;15.70;99.90;;;;;;5044224;28;20187;-73
2021/07/02 07:48:00;;;;;;;13.50;9.03;;;15.80;99.90;;;;;;5042466;28;20655;-73
2021/07/02 07:50:28;;;;;;;11.73;7.57;;;16.00;26.40;;;;;;5042591;28;20182;-73
2021/07/02 07:52:58;;;;;;;12.23;7.40;;;16.10;25.60;;;;;;5040250;28;20641;-74
2021/07/02 07:55:25;;;;;;;14.30;8.33;;;16.00;55.20;;;;;;5054084;28;20473;-74
2021/07/02 07:57:51;;;;;;;11.47;7.93;;;16.00;99.90;;;;;;5050291;28;20480;-74
2021/07/02 08:00:17;;;;;;;10.37;8.00;;;16.20;50.70;;;;;;5045455;28;20569;-73
2021/07/02 08:02:43;;;;;;;11.97;6.90;;;16.20;1.00;;;;;;5047161;28;20469;-74
2021/07/02 08:05:09;;;;;;;10.77;7.10;;;16.10;1.00;;;;;;5048392;28;20491;-74
2021/07/02 08:07:39;;;;;;;10.30;6.67;;;15.90;1.00;;;;;;5052389;28;20731;-74
2021/07/02 08:10:10;;;;;;;8.87;6.70;;;15.90;1.00;;;;;;5046240;28;20584;-74
2021/07/02 08:12:36;;;;;;;11.87;7.03;;;16.20;1.00;;;;;;5047343;28;21026;-74
2021/07/02 08:15:02;;;;;;;10.80;6.87;;;16.40;1.00;;;;;;5054690;28;20447;-74
2021/07/02 08:17:29;;;;;;;9.20;6.30;;;16.60;13.00;;;;;;5052768;28;20518;-74
2021/07/02 08:19:56;;;;;;;8.13;4.50;;;16.80;1.00;;;;;;5047810;28;20523;-73
2021/07/02 08:22:23;;;;;;;8.30;4.97;;;17.00;1.00;;;;;;5054696;28;20555;-73
2021/07/02 08:24:49;;;;;;;6.90;4.30;;;17.10;1.00;;;;;;5051468;28;20457;-73
2021/07/02 08:27:15;;;;;;;6.10;3.63;;;17.20;1.00;;;;;;5058972;28;20439;-74
2021/07/02 08:29:41;;;;;;;5.67;3.10;;;17.10;1.00;;;;;;5051773;28;20496;-73
2021/07/02 08:32:07;;;;;;;5.77;3.83;;;16.90;1.00;;;;;;5049482;28;20187;-73
2021/07/02 08:34:32;;;;;;;5.53;3.80;;;16.60;1.00;;;;;;5055330;28;20319;-74
2021/07/02 08:36:58;;;;;;;8.70;4.23;;;16.30;1.00;;;;;;5061448;28;20233;-74
2021/07/02 08:39:24;;;;;;;5.07;3.70;;;16.30;1.00;;;;;;5058170;28;20274;-74
2021/07/02 08:41:50;;;;;;;6.17;4.13;;;16.40;1.00;;;;;;5054171;28;20560;-74
2021/07/02 08:44:16;;;;;;;4.43;3.43;;;16.50;1.00;;;;;;5055268;28;20670;-74
2021/07/02 08:46:45;;;;;;;7.30;3.10;;;16.40;1.00;;;;;;5054197;28;20446;-73
2021/07/02 08:49:11;;;;;;;4.10;3.17;;;16.30;1.00;;;;;;5049896;28;20971;-74
2021/07/02 08:51:37;;;;;;;4.97;3.03;;;16.30;1.00;;;;;;5058406;28;20473;-74
2021/07/02 08:54:02;;;;;;;5.17;3.20;;;16.50;1.00;;;;;;5056557;28;20808;-74
2021/07/02 08:56:28;;;;;;;4.03;3.33;;;16.60;1.00;;;;;;5051424;28;20757;-74
2021/07/02 08:58:54;;;;;;;3.67;2.83;;;16.70;1.00;;;;;;5060186;28;20662;-74
2021/07/02 09:01:42;;;;;;;4.40;2.93;;;16.80;1.00;;;;;;5047162;28;20453;-73
2021/07/02 09:04:19;;;;;;;7.83;2.90;;;17.00;1.00;;;;;;5050149;28;20210;-73
2021/07/02 09:07:05;;;;;;;6.70;3.37;;;16.80;1.00;;;;;;5050879;28;20488;-74
2021/07/02 09:09:58;;;;;;;4.20;3.00;;;16.70;1.00;;;;;;5043707;28;20535;-74
2021/07/02 09:12:28;;;;;;;8.13;3.53;;;16.80;1.00;;;;;;5051605;28;20474;-74
2021/07/02 09:15:09;;;;;;;4.47;3.20;;;17.20;1.00;;;;;;5050770;28;20437;-73
2021/07/02 09:17:37;;;;;;;4.03;3.13;;;17.50;1.00;;;;;;5047772;28;20444;-74
2021/07/02 09:20:18;;;;;;;7.50;3.20;;;17.90;1.00;;;;;;5041620;28;20466;-74
2021/07/02 09:22:46;;;;;;;4.40;2.87;;;18.10;1.00;;;;;;5045013;28;20468;-73
2021/07/02 09:25:35;;;;;;;4.57;3.00;;;18.10;1.00;;;;;;5052743;28;20464;-73
2021/07/02 09:28:07;;;;;;;7.30;3.03;;;18.10;1.00;;;;;;5050061;28;20501;-74
2021/07/02 09:30:41;;;;;;;5.03;3.37;;;18.30;1.00;;;;;;5050209;28;20848;-74
2021/07/02 09:33:11;;;;;;;6.00;3.53;;;18.30;1.00;;;;;;5050512;28;20448;-74
2021/07/02 09:35:46;;;;;;;9.20;3.70;;;18.30;1.00;;;;;;5051462;28;20428;-74
2021/07/02 09:38:15;;;;;;;5.20;3.47;;;18.50;1.00;;;;;;5052613;28;20451;-74
2021/07/02 09:40:40;;;;;;;4.00;3.00;;;18.70;1.00;;;;;;5057366;28;20496;-74
2021/07/02 09:43:12;;;;;;;7.37;3.07;;;18.60;1.00;;;;;;5056748;28;20461;-74
2021/07/02 09:45:55;;;;;;;5.40;3.07;;;18.50;1.00;;;;;;5050753;28;20194;-74
2021/07/02 09:48:23;;;;;;;3.30;3.00;;;18.80;1.00;;;;;;5048424;28;20502;-74
2021/07/02 09:51:03;;;;;;;4.03;2.90;;;19.10;1.00;;;;;;5045445;28;20449;-74
2021/07/02 09:53:33;;;;;;;3.83;2.67;;;18.80;1.00;;;;;;5048624;28;20448;-74
2021/07/02 09:56:01;;;;;;;5.63;3.57;;;18.60;1.00;;;;;;5049762;28;21077;-74
2021/07/02 09:58:29;;;;;;;3.40;2.70;;;18.50;1.00;;;;;;5044477;28;20465;-74
2021/07/02 10:00:59;;;;;;;6.43;3.70;;;18.80;1.00;;;;;;5053321;28;21114;-74
2021/07/02 10:03:25;;;;;;;8.10;3.70;;;18.60;1.00;;;;;;5050856;28;20504;-75
2021/07/02 10:05:55;;;;;;;3.17;2.77;;;18.20;1.00;;;;;;5062235;28;20425;-74
2021/07/02 10:08:26;;;;;;;6.80;2.80;;;18.10;1.00;;;;;;5058022;28;20217;-74
2021/07/02 10:10:54;;;;;;;5.87;3.50;;;18.60;1.00;;;;;;5055686;28;20430;-75
2021/07/02 10:13:23;;;;;;;6.20;4.07;;;18.80;1.00;;;;;;5049839;28;20461;-74
2021/07/02 10:15:50;;;;;;;5.33;3.43;;;18.80;1.00;;;;;;5057174;28;20490;-75
2021/07/02 10:18:17;;;;;;;6.80;3.87;;;19.20;1.00;;;;;;5049357;28;20977;-74
2021/07/02 10:20:44;;;;;;;9.40;3.77;;;19.60;1.00;;;;;;5051636;28;20451;-73
2021/07/02 10:23:11;;;;;;;7.13;3.63;;;19.80;1.00;;;;;;5053326;28;20469;-74
2021/07/02 10:25:42;;;;;;;3.70;2.83;;;19.90;1.00;;;;;;5052048;28;20429;-74
2021/07/02 10:28:12;;;;;;;5.60;4.40;;;19.80;1.00;;;;;;5053294;28;20464;-74
2021/07/02 10:30:41;;;;;;;7.60;3.80;;;19.80;1.00;;;;;;5053828;28;20844;-74
2021/07/02 10:33:07;;;;;;;7.80;3.93;;;19.70;1.00;;;;;;5050407;28;20503;-75
2021/07/02 10:35:35;;;;;;;7.30;4.27;;;19.90;1.00;;;;;;5050925;28;20476;-74
2021/07/02 10:38:01;;;;;;;7.20;3.93;;;20.20;1.00;;;;;;5054894;28;20476;-75
2021/07/02 10:40:43;;;;;;;6.93;4.30;;;20.20;1.00;;;;;;5051990;28;20809;-74
2021/07/02 10:43:18;;;;;;;6.07;4.50;;;19.90;1.00;;;;;;5053457;28;20466;-75
2021/07/02 10:46:09;;;;;;;7.23;4.70;;;19.40;1.00;;;;;;5057082;28;20920;-74
2021/07/02 10:48:46;;;;;;;6.77;4.27;;;19.30;1.00;;;;;;5049330;28;20542;-74
2021/07/02 10:51:31;;;;;;;4.97;3.53;;;19.50;1.00;;;;;;5050164;28;20441;-73
2021/07/02 10:54:14;;;;;;;6.20;3.70;;;19.80;1.00;;;;;;5055227;28;20878;-74
2021/07/02 10:56:44;;;;;;;6.27;3.80;;;20.20;1.00;;;;;;5058539;28;20555;-73
2021/07/02 10:59:13;;;;;;;6.50;3.83;;;19.90;1.00;;;;;;5056858;28;21035;-75
2021/07/02 11:02:11;;;;;;;8.00;3.50;;;19.40;1.00;;;;;;5053820;28;20477;-75
2021/07/02 11:04:36;;;;;;;5.00;4.00;;;19.10;1.00;;;;;;5056712;28;20479;-75
2021/07/02 11:07:27;;;;;;;5.00;4.10;;;19.10;1.00;;;;;;5056219;28;20455;-74
2021/07/02 11:12:53;;;;;;;5.80;3.43;;;19.70;1.00;;;;;;5061958;28;20491;-75
2021/07/02 11:15:20;;;;;;;4.53;3.40;;;19.70;1.00;;;;;;5037967;28;20194;-74
2021/07/02 11:17:49;;;;;;;7.70;4.17;;;19.50;1.00;;;;;;5055524;28;20452;-75
2021/07/02 11:20:18;;;;;;;5.80;3.90;;;19.60;1.00;;;;;;5044916;28;20928;-75
2021/07/02 11:22:46;;;;;;;5.80;4.00;;;19.60;1.00;;;;;;5054051;28;20493;-73
2021/07/02 11:25:20;;;;;;;5.90;3.90;;;19.60;1.00;;;;;;5052816;28;20441;-75
2021/07/02 11:27:53;;;;;;;8.00;4.60;;;19.50;1.00;;;;;;5052154;28;20489;-74
2021/07/02 11:30:33;;;;;;;7.10;5.13;;;19.20;1.00;;;;;;5057880;28;20491;-74
2021/07/02 11:33:00;;;;;;;7.50;5.00;;;19.20;1.00;;;;;;5051016;28;20511;-75
2021/07/02 11:35:33;;;;;;;12.63;4.90;;;19.50;1.00;;;;;;5057413;28;20516;-74
2021/07/02 11:37:59;;;;;;;6.70;4.40;;;19.70;1.00;;;;;;5061034;28;20524;-74
2021/07/02 11:40:32;;;;;;;7.10;4.37;;;19.40;1.00;;;;;;5051953;28;20580;-74
2021/07/02 11:42:58;;;;;;;7.30;5.13;;;19.30;1.00;;;;;;5069612;28;20214;-75
2021/07/02 11:45:43;;;;;;;5.67;4.33;;;19.20;1.00;;;;;;5065552;28;20845;-75
2021/07/02 11:48:24;;;;;;;6.70;4.70;;;19.40;1.00;;;;;;5058949;28;20439;-75
2021/07/02 11:50:52;;;;;;;6.13;5.30;;;19.80;1.00;;;;;;5049265;28;20460;-75
2021/07/02 11:53:34;;;;;;;5.80;4.30;;;20.10;1.00;;;;;;5051691;28;21105;-75
2021/07/02 11:56:04;;;;;;;7.07;5.00;;;20.30;1.00;;;;;;5051688;28;20535;-75
2021/07/02 11:58:35;;;;;;;7.43;4.37;;;20.60;1.00;;;;;;5040635;28;21676;-75
2021/07/02 12:01:16;;;;;;;5.67;4.27;;;20.80;1.00;;;;;;5039122;28;20457;-77
2021/07/02 12:04:00;;;;;;;6.70;4.47;;;20.80;1.00;;;;;;5057708;28;20855;-74
2021/07/02 12:06:28;;;;;;;6.93;4.07;;;20.40;1.00;;;;;;5064076;28;21148;-75
2021/07/02 12:09:04;;;;;;;8.67;4.37;;;20.40;1.00;;;;;;5057656;28;20447;-75
2021/07/02 12:11:29;;;;;;;5.40;4.07;;;20.80;1.00;;;;;;5053886;28;20492;-75
2021/07/02 12:13:55;;;;;;;5.97;3.80;;;20.80;1.00;;;;;;5044527;28;21263;-74
2021/07/02 12:16:26;;;;;;;8.97;4.47;;;20.90;1.00;;;;;;5053716;28;20638;-74
2021/07/02 12:18:54;;;;;;;5.33;4.63;;;21.00;1.00;;;;;;5053975;28;20184;-73
2021/07/02 12:21:27;;;;;;;5.00;3.80;;;20.80;1.00;;;;;;5051067;28;20480;-75
2021/07/02 12:23:53;;;;;;;6.03;4.80;;;20.90;1.00;;;;;;5050473;28;20626;-73
2021/07/02 12:26:21;;;;;;;5.13;4.30;;;21.40;1.00;;;;;;5042675;28;20444;-74
2021/07/02 12:28:58;;;;;;;9.63;5.00;;;21.20;1.00;;;;;;5043026;28;20464;-75
2021/07/02 12:31:35;;;;;;;6.37;5.20;;;21.30;1.00;;;;;;5053593;28;21433;-74
2021/07/02 12:34:02;;;;;;;10.10;5.00;;;21.40;1.00;;;;;;5053340;28;20441;-75
2021/07/02 12:36:29;;;;;;;6.90;5.33;;;21.00;1.00;;;;;;5044617;28;20450;-74
2021/07/02 12:39:00;;;;;;;8.07;4.27;;;20.80;1.00;;;;;;5050269;28;20500;-75
2021/07/02 12:41:33;;;;;;;6.97;4.37;;;20.70;1.00;;;;;;5048219;28;20510;-75
2021/07/02 12:43:58;;;;;;;7.00;5.00;;;20.50;1.00;;;;;;5055554;28;20832;-74
2021/07/02 12:46:26;;;;;;;8.30;5.37;;;20.70;1.00;;;;;;5055041;28;20434;-75